createdAt,value
2017-06-27T00:00:46.887Z,98419
2017-06-27T00:03:14.959Z,98405
2017-06-27T00:05:43.069Z,98409
2017-06-27T00:08:11.127Z,98415
2017-06-27T00:10:39.194Z,98408
2017-06-27T00:13:07.271Z,98402
2017-06-27T00:15:35.351Z,98406
2017-06-27T00:18:03.415Z,98407
2017-06-27T00:20:31.486Z,98404
2017-06-27T00:22:59.559Z,98406
2017-06-27T00:25:27.628Z,98403
2017-06-27T00:27:55.703Z,98404
2017-06-27T00:30:23.771Z,98405
2017-06-27T00:32:51.844Z,98404
2017-06-27T00:35:19.916Z,98394
2017-06-27T00:37:47.987Z,98398
2017-06-27T00:40:16.051Z,98395
2017-06-27T00:42:44.135Z,98403
2017-06-27T00:45:12.632Z,98399
2017-06-27T00:47:41.479Z,98394
2017-06-27T00:50:09.539Z,98388
2017-06-27T00:52:37.619Z,98393
2017-06-27T00:55:05.699Z,98385
2017-06-27T00:57:33.772Z,98393
2017-06-27T01:00:01.850Z,98397
2017-06-27T01:02:29.924Z,98394
2017-06-27T01:04:57.995Z,98390
2017-06-27T01:07:26.079Z,98386
2017-06-27T01:09:54.143Z,98375
2017-06-27T01:12:22.211Z,98376
2017-06-27T01:14:50.299Z,98379
2017-06-27T01:17:18.375Z,98381
2017-06-27T01:19:46.968Z,98372
2017-06-27T01:22:15.048Z,98366
2017-06-27T01:24:43.887Z,98360
2017-06-27T01:27:11.964Z,98361
2017-06-27T01:29:40.027Z,98349
2017-06-27T01:32:08.099Z,98361
2017-06-27T01:34:36.169Z,98359
2017-06-27T01:37:04.267Z,98353
2017-06-27T01:39:32.338Z,98345
2017-06-27T01:42:00.444Z,98350
2017-06-27T01:44:29.278Z,98355
2017-06-27T01:46:57.357Z,98365
2017-06-27T01:49:25.438Z,98365
2017-06-27T01:51:53.502Z,98367
2017-06-27T01:54:21.920Z,98356
2017-06-27T01:56:49.987Z,98362
2017-06-27T01:59:18.083Z,98367
2017-06-27T02:01:46.147Z,98356
2017-06-27T02:04:15.714Z,98354
2017-06-27T02:06:43.799Z,98354
2017-06-27T02:09:11.871Z,98351
2017-06-27T02:11:39.943Z,98346
2017-06-27T02:14:08.026Z,98339
2017-06-27T02:16:36.402Z,98343
2017-06-27T02:19:04.462Z,98352
2017-06-27T02:21:32.585Z,98346
2017-06-27T02:24:01.418Z,98356
2017-06-27T02:26:29.479Z,98347
2017-06-27T02:28:57.558Z,98347
2017-06-27T02:31:25.622Z,98346
2017-06-27T02:33:53.691Z,98353
2017-06-27T02:36:21.759Z,98342
2017-06-27T02:38:49.840Z,98354
2017-06-27T02:41:17.908Z,98358
2017-06-27T02:43:46.006Z,98367
2017-06-27T02:46:14.071Z,98386
2017-06-27T02:48:42.138Z,98398
2017-06-27T02:51:10.214Z,98396
2017-06-27T02:53:38.279Z,98393
2017-06-27T02:56:06.383Z,98386
2017-06-27T02:58:34.456Z,98389
2017-06-27T03:01:02.535Z,98399
2017-06-27T03:03:30.604Z,98405
2017-06-27T03:05:58.687Z,98410
2017-06-27T03:08:27.530Z,98405
2017-06-27T03:10:55.618Z,98396
2017-06-27T03:13:23.690Z,98400
2017-06-27T03:15:51.764Z,98407
2017-06-27T03:18:19.839Z,98405
2017-06-27T03:20:47.912Z,98400
2017-06-27T03:23:15.988Z,98405
2017-06-27T03:25:44.083Z,98411
2017-06-27T03:28:12.922Z,98419
2017-06-27T03:30:40.993Z,98406
2017-06-27T03:33:09.114Z,98405
2017-06-27T03:35:37.196Z,98401
2017-06-27T03:38:06.037Z,98401
2017-06-27T03:40:34.115Z,98397
2017-06-27T03:43:02.205Z,98399
2017-06-27T03:45:30.276Z,98397
2017-06-27T03:47:58.349Z,98393
2017-06-27T03:50:26.433Z,98385
2017-06-27T03:52:54.507Z,98389
2017-06-27T03:55:22.600Z,98398
2017-06-27T03:57:50.662Z,98392
2017-06-27T04:00:19.506Z,98390
2017-06-27T04:02:47.696Z,98397
2017-06-27T04:05:15.779Z,98389
2017-06-27T04:07:43.865Z,98382
2017-06-27T04:10:11.932Z,98388
2017-06-27T04:12:40.003Z,98383
2017-06-27T04:15:08.071Z,98389
2017-06-27T04:17:36.146Z,98385
2017-06-27T04:20:04.220Z,98391
2017-06-27T04:22:32.279Z,98396
2017-06-27T04:25:00.347Z,98389
2017-06-27T04:27:28.419Z,98395
2017-06-27T04:29:56.491Z,98389
2017-06-27T04:32:24.641Z,98385
2017-06-27T04:34:52.719Z,98399
2017-06-27T04:37:20.790Z,98391
2017-06-27T04:39:48.871Z,98396
2017-06-27T04:42:16.935Z,98397
2017-06-27T04:44:45.034Z,98404
2017-06-27T04:47:13.100Z,98411
2017-06-27T04:49:41.165Z,98397
2017-06-27T04:52:09.256Z,98396
2017-06-27T04:54:37.320Z,98401
2017-06-27T04:57:05.394Z,98390
2017-06-27T04:59:33.462Z,98386
2017-06-27T05:02:01.539Z,98395
2017-06-27T05:04:29.603Z,98399
2017-06-27T05:06:57.686Z,98397
2017-06-27T05:09:25.767Z,98397
2017-06-27T05:11:53.851Z,98392
2017-06-27T05:14:21.947Z,98397
2017-06-27T05:16:50.012Z,98391
2017-06-27T05:19:18.855Z,98402
2017-06-27T05:21:46.928Z,98394
2017-06-27T05:24:15.426Z,98394
2017-06-27T05:26:43.495Z,98394
2017-06-27T05:29:11.575Z,98394
2017-06-27T05:31:39.646Z,98395
2017-06-27T05:34:07.719Z,98392
2017-06-27T05:36:35.856Z,98394
2017-06-27T05:39:03.952Z,98404
2017-06-27T05:41:32.018Z,98405
2017-06-27T05:44:00.114Z,98404
2017-06-27T05:46:28.207Z,98407
2017-06-27T05:48:57.054Z,98405
2017-06-27T05:51:25.143Z,98418
2017-06-27T05:53:53.218Z,98415
2017-06-27T05:56:21.307Z,98406
2017-06-27T05:58:50.143Z,98413
2017-06-27T06:01:18.262Z,98416
2017-06-27T06:03:46.335Z,98410
2017-06-27T06:06:14.412Z,98419
2017-06-27T06:08:42.488Z,98413
2017-06-27T06:11:11.331Z,98418
2017-06-27T06:13:39.407Z,98417
2017-06-27T06:16:07.479Z,98413
2017-06-27T06:18:45.476Z,98413
2017-06-27T06:21:13.543Z,98423
2017-06-27T06:23:41.615Z,98423
2017-06-27T06:26:09.687Z,98415
2017-06-27T06:28:37.775Z,98424
2017-06-27T06:31:05.847Z,98417
2017-06-27T06:33:33.919Z,98417
2017-06-27T06:36:01.999Z,98421
2017-06-27T06:38:30.072Z,98418
2017-06-27T06:40:58.148Z,98419
2017-06-27T06:43:26.218Z,98414
2017-06-27T06:45:54.314Z,98407
2017-06-27T06:48:22.374Z,98406
2017-06-27T06:50:50.446Z,98407
2017-06-27T06:53:18.536Z,98401
2017-06-27T06:55:46.607Z,98404
2017-06-27T06:58:14.683Z,98392
2017-06-27T07:00:43.520Z,98398
2017-06-27T07:03:11.608Z,98397
2017-06-27T07:05:39.704Z,98396
2017-06-27T07:08:07.803Z,98389
2017-06-27T07:10:36.669Z,98380
2017-06-27T07:13:04.744Z,98389
2017-06-27T07:15:32.875Z,98380
2017-06-27T07:18:00.944Z,98383
2017-06-27T07:20:29.028Z,98381
2017-06-27T07:22:57.095Z,98389
2017-06-27T07:25:25.176Z,98385
2017-06-27T07:27:53.250Z,98388
2017-06-27T07:30:21.333Z,98382
2017-06-27T07:32:49.419Z,98386
2017-06-27T07:35:17.515Z,98381
2017-06-27T07:37:45.595Z,98393
2017-06-27T07:40:14.443Z,98391
2017-06-27T07:42:42.538Z,98383
2017-06-27T07:45:10.616Z,98389
2017-06-27T07:47:39.462Z,98386
2017-06-27T07:50:07.531Z,98382
2017-06-27T07:52:35.623Z,98385
2017-06-27T07:55:03.727Z,98383
2017-06-27T07:57:31.799Z,98372
2017-06-27T07:59:59.879Z,98378
2017-06-27T08:02:27.963Z,98368
2017-06-27T08:04:56.046Z,98361
2017-06-27T08:07:24.143Z,98366
2017-06-27T08:09:52.218Z,98350
2017-06-27T08:12:20.315Z,98353
2017-06-27T08:14:48.403Z,98348
2017-06-27T08:17:16.491Z,98340
2017-06-27T08:19:44.560Z,98345
2017-06-27T08:22:13.420Z,98351
2017-06-27T08:24:41.504Z,98354
2017-06-27T08:27:09.572Z,98356
2017-06-27T08:29:37.660Z,98362
2017-06-27T08:32:06.505Z,98361
2017-06-27T08:34:34.598Z,98362
2017-06-27T08:37:02.673Z,98366
2017-06-27T08:39:30.760Z,98362
2017-06-27T08:41:58.834Z,98361
2017-06-27T08:44:26.903Z,98350
2017-06-27T08:46:54.987Z,98360
2017-06-27T08:49:23.816Z,98354
2017-06-27T08:51:51.895Z,98354
2017-06-27T08:54:20.349Z,98348
2017-06-27T08:56:48.437Z,98352
2017-06-27T08:59:16.491Z,98352
2017-06-27T09:01:44.591Z,98338
2017-06-27T09:04:12.664Z,98339
2017-06-27T09:06:40.731Z,98332
2017-06-27T09:09:08.807Z,98325
2017-06-27T09:11:36.891Z,98320
2017-06-27T09:14:04.971Z,98312
2017-06-27T09:16:33.052Z,98316
2017-06-27T09:19:01.146Z,98312
2017-06-27T09:21:29.207Z,98301
2017-06-27T09:23:57.294Z,98306
2017-06-27T09:26:26.135Z,98293
2017-06-27T09:28:54.207Z,98296
2017-06-27T09:31:22.281Z,98291
2017-06-27T09:33:50.358Z,98285
2017-06-27T09:36:18.442Z,98274
2017-06-27T09:38:46.535Z,98282
2017-06-27T09:41:14.629Z,98280
2017-06-27T09:43:43.459Z,98285
2017-06-27T09:46:11.555Z,98273
2017-06-27T09:48:39.643Z,98268
2017-06-27T09:51:07.711Z,98264
2017-06-27T09:53:35.787Z,98278
2017-06-27T09:56:03.859Z,98269
2017-06-27T09:58:31.939Z,98270
2017-06-27T10:01:00.012Z,98269
2017-06-27T10:03:28.099Z,98275
2017-06-27T10:05:56.939Z,98269
2017-06-27T10:08:24.999Z,98264
2017-06-27T10:10:53.207Z,98269
2017-06-27T10:13:21.272Z,98266
2017-06-27T10:15:49.371Z,98270
2017-06-27T10:18:17.439Z,98267
2017-06-27T10:20:45.691Z,98270
2017-06-27T10:23:13.763Z,98266
2017-06-27T10:25:41.852Z,98264
2017-06-27T10:28:09.918Z,98262
2017-06-27T10:30:37.997Z,98261
2017-06-27T10:33:06.067Z,98258
2017-06-27T10:35:34.134Z,98256
2017-06-27T10:38:02.539Z,98258
2017-06-27T10:40:31.368Z,98260
2017-06-27T10:42:59.443Z,98261
2017-06-27T10:45:27.515Z,98260
2017-06-27T10:47:55.643Z,98256
2017-06-27T10:50:24.479Z,98256
2017-06-27T10:52:52.551Z,98252
2017-06-27T10:55:20.627Z,98256
2017-06-27T10:57:48.701Z,98246
2017-06-27T11:00:16.770Z,98247
2017-06-27T11:02:44.840Z,98242
2017-06-27T11:05:12.910Z,98239
2017-06-27T11:07:40.977Z,98234
2017-06-27T11:10:09.259Z,98237
2017-06-27T11:12:37.319Z,98229
2017-06-27T11:15:05.387Z,98233
2017-06-27T11:17:33.470Z,98224
2017-06-27T11:20:01.535Z,98232
2017-06-27T11:22:29.620Z,98227
2017-06-27T11:24:57.724Z,98223
2017-06-27T11:27:25.808Z,98218
2017-06-27T11:29:53.879Z,98213
2017-06-27T11:32:21.964Z,98208
2017-06-27T11:34:50.032Z,98203
2017-06-27T11:37:18.105Z,98192
2017-06-27T11:39:46.172Z,98185
2017-06-27T11:42:14.239Z,98190
2017-06-27T11:44:42.323Z,98188
2017-06-27T11:47:10.385Z,98180
2017-06-27T11:49:38.460Z,98180
2017-06-27T11:52:06.527Z,98178
2017-06-27T11:54:34.627Z,98176
2017-06-27T11:57:03.463Z,98182
2017-06-27T11:59:31.527Z,98174
2017-06-27T12:02:10.555Z,98166
2017-06-27T12:04:41.493Z,98163
2017-06-27T12:07:21.599Z,98159
2017-06-27T12:09:50.451Z,98163
2017-06-27T12:12:18.531Z,98161
2017-06-27T12:14:46.607Z,98149
2017-06-27T12:17:14.720Z,98149
2017-06-27T12:19:43.560Z,98149
2017-06-27T12:22:11.648Z,98137
2017-06-27T12:24:39.715Z,98134
2017-06-27T12:27:07.816Z,98129
2017-06-27T12:29:35.877Z,98134
2017-06-27T12:32:03.948Z,98133
2017-06-27T12:34:32.032Z,98125
2017-06-27T12:37:00.095Z,98123
2017-06-27T12:39:28.177Z,98122
2017-06-27T12:41:56.240Z,98118
2017-06-27T12:44:24.331Z,98119
2017-06-27T12:46:52.416Z,98127
2017-06-27T12:49:20.483Z,98125
2017-06-27T12:51:48.560Z,98123
2017-06-27T12:54:16.633Z,98118
2017-06-27T12:56:45.475Z,98128
2017-06-27T12:59:13.543Z,98123
2017-06-27T13:01:41.636Z,98118
2017-06-27T13:04:09.707Z,98125
2017-06-27T13:06:37.788Z,98127
2017-06-27T13:09:05.871Z,98126
2017-06-27T13:11:34.720Z,98116
2017-06-27T13:14:02.800Z,98117
2017-06-27T13:16:30.922Z,98123
2017-06-27T13:18:58.993Z,98118
2017-06-27T13:21:28.631Z,98114
2017-06-27T13:23:56.723Z,98116
2017-06-27T13:26:24.794Z,98119
2017-06-27T13:28:52.887Z,98118
2017-06-27T13:31:20.963Z,98118
2017-06-27T13:33:49.049Z,98112
2017-06-27T13:36:17.908Z,98103
2017-06-27T13:38:46.004Z,98101
2017-06-27T13:41:14.092Z,98092
2017-06-27T13:43:42.164Z,98091
2017-06-27T13:46:10.247Z,98093
2017-06-27T13:48:38.320Z,98094
2017-06-27T13:51:06.392Z,98075
2017-06-27T13:53:34.503Z,98081
2017-06-27T13:56:02.575Z,98079
2017-06-27T13:58:30.677Z,98080
2017-06-27T14:00:58.757Z,98067
2017-06-27T14:03:26.840Z,98071
2017-06-27T14:05:55.672Z,98068
2017-06-27T14:08:23.780Z,98063
2017-06-27T14:10:51.860Z,98077
2017-06-27T14:13:19.932Z,98072
2017-06-27T14:15:48.003Z,98064
2017-06-27T14:18:16.077Z,98064
2017-06-27T14:20:44.147Z,98061
2017-06-27T14:23:12.220Z,98054
2017-06-27T14:25:40.330Z,98058
2017-06-27T14:28:08.406Z,98046
2017-06-27T14:30:36.476Z,98051
2017-06-27T14:33:04.547Z,98045
2017-06-27T14:35:32.617Z,98045
2017-06-27T14:38:00.711Z,98050
2017-06-27T14:40:28.772Z,98049
2017-06-27T14:42:56.854Z,98043
2017-06-27T14:45:24.927Z,98036
2017-06-27T14:47:53.026Z,98041
2017-06-27T14:50:21.096Z,98041
2017-06-27T14:52:49.176Z,98036
2017-06-27T14:55:17.251Z,98034
2017-06-27T14:57:45.332Z,98027
2017-06-27T15:00:13.695Z,98024
2017-06-27T15:02:41.763Z,98017
2017-06-27T15:05:09.846Z,98023
2017-06-27T15:07:37.937Z,98016
2017-06-27T15:10:06.804Z,98004
2017-06-27T15:12:34.933Z,97997
2017-06-27T15:15:03.007Z,98009
2017-06-27T15:17:31.090Z,98001
2017-06-27T15:19:59.156Z,97996
2017-06-27T15:22:27.254Z,97995
2017-06-27T15:24:55.323Z,97987
2017-06-27T15:27:23.407Z,97986
2017-06-27T15:29:51.484Z,97990
2017-06-27T15:32:19.580Z,97986
2017-06-27T15:34:47.651Z,97978
2017-06-27T15:37:15.725Z,97979
2017-06-27T15:39:43.836Z,97989
2017-06-27T15:42:11.903Z,97976
2017-06-27T15:44:40.019Z,97981
2017-06-27T15:47:08.105Z,97975
2017-06-27T15:49:36.203Z,97971
2017-06-27T15:52:05.047Z,97962
2017-06-27T15:54:33.163Z,97971
2017-06-27T15:57:02.012Z,97964
2017-06-27T15:59:30.096Z,97961
2017-06-27T16:01:58.183Z,97961
2017-06-27T16:04:26.256Z,97963
2017-06-27T16:06:54.347Z,97954
2017-06-27T16:09:22.431Z,97952
2017-06-27T16:11:50.532Z,97953
2017-06-27T16:14:18.677Z,97953
2017-06-27T16:16:46.752Z,97962
2017-06-27T16:19:14.831Z,97961
2017-06-27T16:21:42.928Z,97969
2017-06-27T16:24:11.005Z,97956
2017-06-27T16:26:39.096Z,97953
2017-06-27T16:29:07.179Z,97951
2017-06-27T16:31:35.251Z,97939
2017-06-27T16:34:03.336Z,97956
2017-06-27T16:36:32.180Z,97955
2017-06-27T16:39:00.257Z,97958
2017-06-27T16:41:28.324Z,97953
2017-06-27T16:43:57.011Z,97957
2017-06-27T16:46:25.085Z,97950
2017-06-27T16:48:53.172Z,97955
2017-06-27T16:51:21.239Z,97947
2017-06-27T16:53:49.336Z,97944
2017-06-27T16:56:17.403Z,97945
2017-06-27T16:58:48.354Z,97943
2017-06-27T17:01:17.303Z,97945
2017-06-27T17:03:45.370Z,97929
2017-06-27T17:06:13.452Z,97932
2017-06-27T17:08:41.675Z,97925
2017-06-27T17:11:09.761Z,97926
2017-06-27T17:13:38.636Z,97932
2017-06-27T17:16:07.474Z,97924
2017-06-27T17:18:35.548Z,97927
2017-06-27T17:21:03.664Z,97939
2017-06-27T17:23:31.739Z,97932
2017-06-27T17:25:59.824Z,97926
2017-06-27T17:28:27.976Z,97921
2017-06-27T17:30:56.051Z,97915
2017-06-27T17:33:24.203Z,97906
2017-06-27T17:35:52.279Z,97912
2017-06-27T17:38:20.360Z,97911
2017-06-27T17:40:48.446Z,97910
2017-06-27T17:43:16.519Z,97909
2017-06-27T17:45:44.587Z,97912
2017-06-27T17:48:12.673Z,97906
2017-06-27T17:50:41.507Z,97903
2017-06-27T17:53:09.585Z,97908
2017-06-27T17:55:37.716Z,97910
2017-06-27T17:58:05.807Z,97912
2017-06-27T18:00:33.897Z,97905
2017-06-27T18:03:01.985Z,97904
2017-06-27T18:05:30.068Z,97898
2017-06-27T18:07:58.140Z,97901
2017-06-27T18:10:26.233Z,97902
2017-06-27T18:12:54.489Z,97894
2017-06-27T18:15:28.703Z,97901
2017-06-27T18:17:56.775Z,97890
2017-06-27T18:20:24.847Z,97890
2017-06-27T18:22:52.931Z,97902
2017-06-27T18:25:20.999Z,97904
2017-06-27T18:27:49.076Z,97891
2017-06-27T18:30:17.143Z,97892
2017-06-27T18:32:45.220Z,97884
2017-06-27T18:35:13.295Z,97879
2017-06-27T18:37:41.372Z,97871
2017-06-27T18:40:09.457Z,97871
2017-06-27T18:42:38.300Z,97868
2017-06-27T18:45:06.371Z,97868
2017-06-27T18:47:34.443Z,97860
2017-06-27T18:50:02.524Z,97859
2017-06-27T18:52:30.596Z,97863
2017-06-27T18:54:58.807Z,97867
2017-06-27T18:57:26.893Z,97860
2017-06-27T18:59:55.042Z,97858
2017-06-27T19:02:23.123Z,97861
2017-06-27T19:04:51.192Z,97861
2017-06-27T19:07:19.271Z,97852
2017-06-27T19:09:47.345Z,97849
2017-06-27T19:12:16.220Z,97850
2017-06-27T19:14:44.352Z,97842
2017-06-27T19:17:12.718Z,97841
2017-06-27T19:19:40.860Z,97839
2017-06-27T19:22:08.937Z,97824
2017-06-27T19:24:37.020Z,97830
2017-06-27T19:27:05.925Z,97837
2017-06-27T19:29:34.024Z,97841
2017-06-27T19:32:02.104Z,97842
2017-06-27T19:34:30.175Z,97837
2017-06-27T19:36:58.321Z,97839
2017-06-27T19:39:26.387Z,97853
2017-06-27T19:41:54.464Z,97851
2017-06-27T19:44:22.527Z,97848
2017-06-27T19:46:50.636Z,97850
2017-06-27T19:49:19.487Z,97849
2017-06-27T19:51:47.569Z,97850
2017-06-27T19:54:15.707Z,97850
2017-06-27T19:56:43.796Z,97841
2017-06-27T19:59:11.888Z,97830
2017-06-27T20:01:39.957Z,97831
2017-06-27T20:04:08.797Z,97836
2017-06-27T20:06:36.867Z,97832
2017-06-27T20:09:04.959Z,97836
2017-06-27T20:11:33.823Z,97827
2017-06-27T20:14:01.895Z,97826
2017-06-27T20:16:29.979Z,97822
2017-06-27T20:18:58.103Z,97825
2017-06-27T20:21:26.939Z,97828
2017-06-27T20:23:55.015Z,97818
2017-06-27T20:26:23.092Z,97823
2017-06-27T20:28:51.225Z,97808
2017-06-27T20:34:16.173Z,97794
2017-06-27T20:36:44.256Z,97797
2017-06-27T20:39:12.345Z,97795
2017-06-27T20:41:40.483Z,97795
2017-06-27T20:47:05.342Z,97804
2017-06-27T20:49:33.511Z,97791
2017-06-27T20:52:02.425Z,97796
2017-06-27T20:54:30.531Z,97798
2017-06-27T20:56:58.680Z,97791
2017-06-27T20:59:26.858Z,97793
2017-06-27T21:01:54.935Z,97791
2017-06-27T21:04:23.072Z,97784
2017-06-27T21:06:51.335Z,97784
2017-06-27T21:09:19.411Z,97783
2017-06-27T21:11:47.499Z,97775
2017-06-27T21:14:15.563Z,97778
2017-06-27T21:16:43.712Z,97785
2017-06-27T21:19:11.856Z,97783
2017-06-27T21:21:40.002Z,97778
2017-06-27T21:24:08.925Z,97784
2017-06-27T21:26:37.025Z,97790
2017-06-27T21:29:05.207Z,97784
2017-06-27T21:31:33.280Z,97784
2017-06-27T21:34:01.422Z,97783
2017-06-27T21:36:29.482Z,97776
2017-06-27T21:38:57.615Z,97769
2017-06-27T21:41:25.700Z,97778
2017-06-27T21:43:53.767Z,97779
2017-06-27T21:46:21.839Z,97761
2017-06-27T21:48:50.683Z,97762
2017-06-27T21:51:18.757Z,97754
2017-06-27T21:53:46.859Z,97753
2017-06-27T21:56:14.931Z,97751
2017-06-27T21:58:43.008Z,97754
2017-06-27T22:01:11.115Z,97755
2017-06-27T22:03:39.188Z,97746
2017-06-27T22:06:07.255Z,97744
2017-06-27T22:08:35.335Z,97736
2017-06-27T22:11:03.491Z,97736
2017-06-27T22:13:32.373Z,97728
2017-06-27T22:16:00.431Z,97722
2017-06-27T22:18:28.561Z,97711
2017-06-27T22:20:56.620Z,97707
2017-06-27T22:23:24.719Z,97723
2017-06-27T22:25:52.788Z,97713
2017-06-27T22:28:20.859Z,97718
2017-06-27T22:30:48.974Z,97708
2017-06-27T22:33:17.045Z,97704
2017-06-27T22:35:45.125Z,97703
2017-06-27T22:38:13.188Z,97705
2017-06-27T22:40:41.275Z,97700
2017-06-27T22:43:10.107Z,97693
2017-06-27T22:45:38.180Z,97689
2017-06-27T22:48:06.251Z,97680
2017-06-27T22:50:34.343Z,97672
2017-06-27T22:53:02.406Z,97665
2017-06-27T22:55:30.472Z,97669
2017-06-27T22:57:58.542Z,97672
2017-06-27T23:00:26.611Z,97676
2017-06-27T23:02:54.691Z,97678
2017-06-27T23:05:22.779Z,97673
2017-06-27T23:07:50.853Z,97677
2017-06-27T23:10:18.927Z,97681
2017-06-27T23:12:47.003Z,97683
2017-06-27T23:15:15.070Z,97681
2017-06-27T23:17:43.172Z,97673
2017-06-27T23:20:11.230Z,97674
2017-06-27T23:22:39.303Z,97671
2017-06-27T23:25:07.375Z,97665
2017-06-27T23:27:35.448Z,97654
2017-06-27T23:30:03.529Z,97666
2017-06-27T23:32:31.595Z,97663
2017-06-27T23:34:59.669Z,97647
2017-06-27T23:37:27.738Z,97648
2017-06-27T23:39:55.830Z,97648
2017-06-27T23:42:24.670Z,97646
2017-06-27T23:44:52.748Z,97645
2017-06-27T23:47:20.834Z,97640
2017-06-27T23:49:48.899Z,97638
2017-06-27T23:52:16.974Z,97634
2017-06-27T23:54:45.044Z,97632
2017-06-27T23:57:13.143Z,97631
2017-06-27T23:59:41.222Z,97635
